createdAt,value
2023-06-29T00:04:28.736Z,18.52
2023-06-29T00:09:30.305Z,18.46
2023-06-29T00:14:31.782Z,18.38
2023-06-29T00:19:33.305Z,18.23
2023-06-29T00:24:43.214Z,18.08
2023-06-29T00:29:44.919Z,17.95
2023-06-29T00:34:46.456Z,17.79
2023-06-29T00:39:47.914Z,17.70
2023-06-29T00:44:51.072Z,17.66
2023-06-29T00:49:52.725Z,17.59
2023-06-29T00:54:59.304Z,17.54
2023-06-29T01:00:01.953Z,17.55
2023-06-29T01:05:05.926Z,17.53
2023-06-29T01:10:10.903Z,17.51
2023-06-29T01:15:12.688Z,17.53
2023-06-29T01:20:15.329Z,17.65
2023-06-29T01:25:16.942Z,17.72
2023-06-29T01:30:18.888Z,17.75
2023-06-29T01:35:20.347Z,17.82
2023-06-29T01:40:27.257Z,17.83
2023-06-29T01:45:28.925Z,17.82
2023-06-29T01:50:31.668Z,17.76
2023-06-29T01:55:34.052Z,17.73
2023-06-29T02:00:38.581Z,17.62
2023-06-29T02:05:40.375Z,17.62
2023-06-29T02:10:41.857Z,17.60
2023-06-29T02:15:43.465Z,17.54
2023-06-29T02:20:45.079Z,17.55
2023-06-29T02:25:46.533Z,17.55
2023-06-29T02:30:48.136Z,17.51
2023-06-29T02:35:49.680Z,17.43
2023-06-29T02:40:51.527Z,17.39
2023-06-29T02:45:52.995Z,17.48
2023-06-29T02:50:54.580Z,17.44
2023-06-29T02:55:56.047Z,17.32
2023-06-29T03:00:57.626Z,17.10
2023-06-29T03:05:59.164Z,17.07
2023-06-29T03:11:00.699Z,17.05
2023-06-29T03:16:02.416Z,16.92
2023-06-29T03:21:15.912Z,16.81
2023-06-29T03:26:18.826Z,16.84
2023-06-29T03:31:20.385Z,16.89
2023-06-29T03:36:21.964Z,16.97
2023-06-29T03:41:23.417Z,17.03
2023-06-29T03:46:25.336Z,17.05
2023-06-29T03:51:26.795Z,17.11
2023-06-29T03:56:28.302Z,17.29
2023-06-29T04:01:29.814Z,17.78
2023-06-29T04:06:31.336Z,18.17
2023-06-29T04:11:32.799Z,18.58
2023-06-29T04:16:34.339Z,19.39
2023-06-29T04:21:36.692Z,20.68
2023-06-29T04:26:39.952Z,22.30
2023-06-29T04:31:41.418Z,23.72
2023-06-29T04:36:46.998Z,25.14
2023-06-29T04:41:48.482Z,26.43
2023-06-29T04:46:49.979Z,27.92
2023-06-29T04:51:51.466Z,28.82
2023-06-29T04:56:52.937Z,28.33
2023-06-29T05:01:54.446Z,28.47
2023-06-29T05:06:56.029Z,29.52
2023-06-29T05:11:57.531Z,30.80
2023-06-29T05:16:59.189Z,31.92
2023-06-29T05:22:01.556Z,32.58
2023-06-29T05:27:03.012Z,32.94
2023-06-29T05:32:05.197Z,34.49
2023-06-29T05:37:06.700Z,33.31
2023-06-29T05:42:08.300Z,30.73
2023-06-29T05:47:10.382Z,29.41
2023-06-29T05:52:11.920Z,28.72
2023-06-29T05:57:13.500Z,28.35
2023-06-29T06:02:15.144Z,27.50
2023-06-29T06:07:27.578Z,27.59
2023-06-29T06:12:29.068Z,30.19
2023-06-29T06:17:30.571Z,34.39
2023-06-29T06:22:32.188Z,37.27
2023-06-29T06:27:33.773Z,36.93
2023-06-29T06:32:35.351Z,35.59
2023-06-29T06:37:37.898Z,33.18
2023-06-29T06:42:40.395Z,31.07
2023-06-29T06:47:41.858Z,30.21
2023-06-29T06:52:43.395Z,30.08
2023-06-29T06:57:44.858Z,30.71
2023-06-29T07:02:46.860Z,31.02
2023-06-29T07:07:48.646Z,32.46
2023-06-29T07:12:50.217Z,32.30
2023-06-29T07:17:51.840Z,31.79
2023-06-29T07:27:57.703Z,36.69
2023-06-29T07:32:59.194Z,37.28
2023-06-29T07:38:00.735Z,35.86
2023-06-29T07:43:02.187Z,35.17
2023-06-29T07:48:03.937Z,35.09
2023-06-29T07:53:05.520Z,34.72
2023-06-29T08:03:11.580Z,32.39
2023-06-29T08:08:13.732Z,32.33
2023-06-29T08:13:16.703Z,33.58
2023-06-29T08:18:18.207Z,35.86
2023-06-29T08:23:19.705Z,36.37
2023-06-29T08:28:21.220Z,35.32
2023-06-29T08:33:24.947Z,34.93
2023-06-29T08:38:26.903Z,34.20
2023-06-29T08:43:28.378Z,33.19
2023-06-29T08:48:32.646Z,33.38
2023-06-29T08:53:35.167Z,35.08
2023-06-29T08:58:37.707Z,35.12
2023-06-29T09:03:41.098Z,34.85
2023-06-29T09:08:42.855Z,34.02
2023-06-29T09:13:47.272Z,34.02
2023-06-29T09:18:55.375Z,33.26
2023-06-29T09:23:59.080Z,32.24
2023-06-29T09:29:04.998Z,32.59
2023-06-29T09:34:20.839Z,32.36
2023-06-29T09:39:22.739Z,32.22
2023-06-29T09:44:26.182Z,31.88
2023-06-29T09:49:27.811Z,31.47
2023-06-29T09:54:29.434Z,31.23
2023-06-29T09:59:35.508Z,31.35
2023-06-29T10:04:37.524Z,31.74
2023-06-29T10:09:42.715Z,32.17
2023-06-29T10:14:46.289Z,32.66
2023-06-29T10:19:49.737Z,32.52
2023-06-29T10:24:55.250Z,32.46
2023-06-29T10:29:57.044Z,32.66
2023-06-29T10:35:09.041Z,32.19
2023-06-29T10:40:20.252Z,31.70
2023-06-29T10:45:22.411Z,31.10
2023-06-29T10:50:30.759Z,30.76
2023-06-29T10:55:57.344Z,30.54
2023-06-29T11:00:58.919Z,30.47
2023-06-29T11:06:03.120Z,30.76
2023-06-29T11:11:17.534Z,30.86
2023-06-29T11:16:19.270Z,31.07
2023-06-29T11:21:22.383Z,31.39
2023-06-29T11:26:24.772Z,31.75
2023-06-29T11:31:26.734Z,32.13
2023-06-29T11:36:34.265Z,31.78
2023-06-29T11:41:39.970Z,31.97
2023-06-29T11:46:43.516Z,31.89
2023-06-29T11:51:45.300Z,31.84
2023-06-29T11:56:46.810Z,31.99
2023-06-29T12:01:48.902Z,32.01
2023-06-29T12:06:54.710Z,32.36
2023-06-29T12:11:58.001Z,32.22
2023-06-29T12:22:06.558Z,32.16
2023-06-29T12:27:08.097Z,32.57
2023-06-29T12:32:09.745Z,32.37
2023-06-29T12:37:11.263Z,32.07
2023-06-29T12:42:12.774Z,32.49
2023-06-29T12:47:14.327Z,32.80
2023-06-29T12:52:17.479Z,32.58
2023-06-29T12:57:20.197Z,33.06
2023-06-29T13:02:22.209Z,32.14
2023-06-29T13:07:24.671Z,32.23
2023-06-29T13:12:27.859Z,32.29
2023-06-29T13:17:29.378Z,32.47
2023-06-29T13:22:32.385Z,32.41
2023-06-29T13:27:34.821Z,32.19
2023-06-29T13:32:36.794Z,32.11
2023-06-29T13:37:39.355Z,31.87
2023-06-29T13:42:40.980Z,31.79
2023-06-29T13:47:43.935Z,32.25
2023-06-29T13:52:45.559Z,32.34
2023-06-29T13:57:47.066Z,32.45
2023-06-29T14:02:50.484Z,32.54
2023-06-29T14:07:52.665Z,31.88
2023-06-29T14:12:54.176Z,31.52
2023-06-29T14:17:55.752Z,31.31
2023-06-29T14:22:58.035Z,31.24
2023-06-29T14:27:59.505Z,31.32
2023-06-29T14:33:01.700Z,31.13
2023-06-29T14:38:14.429Z,30.86
2023-06-29T14:43:16.290Z,30.51
2023-06-29T14:48:18.377Z,30.12
2023-06-29T14:53:21.166Z,29.88
2023-06-29T14:58:22.694Z,29.60
2023-06-29T15:03:24.274Z,29.23
2023-06-29T15:08:27.347Z,28.93
2023-06-29T15:13:29.338Z,28.57
2023-06-29T15:18:30.809Z,28.65
2023-06-29T15:23:32.765Z,28.84
2023-06-29T15:28:34.253Z,29.29
2023-06-29T15:33:36.967Z,29.54
2023-06-29T15:38:38.769Z,29.57
2023-06-29T15:43:40.311Z,29.75
2023-06-29T15:48:44.593Z,29.79
2023-06-29T15:53:46.264Z,29.78
2023-06-29T15:58:49.308Z,29.62
2023-06-29T16:03:50.957Z,29.27
2023-06-29T16:08:52.717Z,29.06
2023-06-29T16:13:55.706Z,29.11
2023-06-29T16:18:57.726Z,29.22
2023-06-29T16:23:59.987Z,29.26
2023-06-29T16:29:04.595Z,29.09
2023-06-29T16:34:06.390Z,29.08
2023-06-29T16:39:08.897Z,28.81
2023-06-29T16:44:11.339Z,28.55
2023-06-29T16:49:12.947Z,28.77
2023-06-29T16:54:19.944Z,28.91
2023-06-29T16:59:21.800Z,28.93
2023-06-29T17:04:26.782Z,28.65
2023-06-29T17:09:33.520Z,28.52
2023-06-29T17:14:35.537Z,28.31
2023-06-29T17:19:40.048Z,28.04
2023-06-29T17:24:42.052Z,28.07
2023-06-29T17:29:47.581Z,28.08
2023-06-29T17:34:49.380Z,28.04
2023-06-29T17:39:51.115Z,27.98
2023-06-29T17:44:52.610Z,27.91
2023-06-29T17:49:54.274Z,27.89
2023-06-29T17:54:55.980Z,27.87
2023-06-29T17:59:57.804Z,27.94
2023-06-29T18:04:59.881Z,27.86
2023-06-29T18:10:05.787Z,27.83
2023-06-29T18:15:08.185Z,27.78
2023-06-29T18:20:10.846Z,27.72
2023-06-29T18:25:14.933Z,27.60
2023-06-29T18:30:16.580Z,27.46
2023-06-29T18:35:18.233Z,27.42
2023-06-29T18:40:19.753Z,27.30
2023-06-29T18:45:21.720Z,27.17
2023-06-29T18:50:23.948Z,27.12
2023-06-29T18:55:26.852Z,27.12
2023-06-29T19:00:28.456Z,26.95
2023-06-29T19:05:30.925Z,26.79
2023-06-29T19:10:32.430Z,26.55
2023-06-29T19:15:33.876Z,26.40
2023-06-29T19:20:35.729Z,26.33
2023-06-29T19:25:37.271Z,26.34
2023-06-29T19:30:38.804Z,26.19
2023-06-29T19:35:40.295Z,26.00
2023-06-29T19:40:41.892Z,25.87
2023-06-29T19:45:43.654Z,25.69
2023-06-29T19:50:45.911Z,25.52
2023-06-29T19:55:47.562Z,25.35
2023-06-29T20:00:49.242Z,25.26
2023-06-29T20:05:50.777Z,25.15
2023-06-29T20:10:53.396Z,25.03
2023-06-29T20:15:55.058Z,24.94
2023-06-29T20:20:56.824Z,24.95
2023-06-29T20:25:58.330Z,24.89
2023-06-29T20:30:59.894Z,24.76
2023-06-29T20:36:01.383Z,24.65
2023-06-29T20:41:02.854Z,24.58
2023-06-29T20:46:05.358Z,24.43
2023-06-29T20:51:16.915Z,24.33
2023-06-29T20:56:20.736Z,24.27
2023-06-29T21:01:22.379Z,24.18
2023-06-29T21:06:23.970Z,24.06
2023-06-29T21:11:25.621Z,23.89
2023-06-29T21:16:27.225Z,23.75
2023-06-29T21:21:29.519Z,23.67
2023-06-29T21:26:31.668Z,23.60
2023-06-29T21:31:34.891Z,23.56
2023-06-29T21:36:36.718Z,23.49
2023-06-29T21:41:38.437Z,23.38
2023-06-29T21:46:39.952Z,23.28
2023-06-29T21:51:41.486Z,23.16
2023-06-29T21:56:42.958Z,23.12
2023-06-29T22:01:44.426Z,23.10
2023-06-29T22:06:45.911Z,22.98
2023-06-29T22:11:47.416Z,22.84
2023-06-29T22:16:48.905Z,22.61
2023-06-29T22:21:52.354Z,22.51
2023-06-29T22:26:53.846Z,22.33
2023-06-29T22:31:55.288Z,22.32
2023-06-29T22:36:56.808Z,22.31
2023-06-29T22:41:58.367Z,22.26
2023-06-29T22:46:59.845Z,22.15
2023-06-29T22:52:01.476Z,22.06
2023-06-29T22:57:03.097Z,21.99
2023-06-29T23:02:04.772Z,21.82
2023-06-29T23:07:06.686Z,21.73
2023-06-29T23:12:08.891Z,21.63
2023-06-29T23:17:10.405Z,21.61
2023-06-29T23:22:11.892Z,21.57
2023-06-29T23:27:13.564Z,21.54
2023-06-29T23:32:15.057Z,21.44
2023-06-29T23:37:16.526Z,21.30
2023-06-29T23:42:18.448Z,21.19
2023-06-29T23:47:19.906Z,21.09
2023-06-29T23:52:21.411Z,20.95
2023-06-29T23:57:23.054Z,20.77
